createdAt,value
2022-08-09T00:00:00.989Z,30.26
2022-08-09T00:00:28.700Z,30.23
2022-08-09T00:00:58.759Z,30.23
2022-08-09T00:01:43.112Z,30.23
2022-08-09T00:01:58.834Z,30.29
2022-08-09T00:02:28.820Z,30.20
2022-08-09T00:02:58.866Z,30.22
2022-08-09T00:04:03.648Z,30.23
2022-08-09T00:04:10.862Z,30.23
2022-08-09T00:04:34.571Z,30.22
2022-08-09T00:05:03.507Z,30.23
2022-08-09T00:06:17.655Z,30.26
2022-08-09T00:06:19.833Z,30.26
2022-08-09T00:06:29.111Z,30.28
2022-08-09T00:06:59.221Z,30.23
2022-08-09T00:07:29.771Z,30.28
2022-08-09T00:08:01.378Z,30.22
2022-08-09T00:08:31.980Z,30.23
2022-08-09T00:08:59.532Z,30.29
2022-08-09T00:09:29.563Z,30.21
2022-08-09T00:09:59.606Z,30.26
2022-08-09T00:10:29.647Z,30.32
2022-08-09T00:10:59.671Z,30.21
2022-08-09T00:12:03.376Z,30.24
2022-08-09T00:12:04.033Z,30.23
2022-08-09T00:12:29.865Z,30.20
2022-08-09T00:12:59.855Z,30.27
2022-08-09T00:13:31.759Z,30.23
2022-08-09T00:13:59.888Z,30.18
2022-08-09T00:14:36.442Z,30.20
2022-08-09T00:15:06.287Z,30.23
2022-08-09T00:15:46.091Z,30.24
2022-08-09T00:16:02.705Z,30.29
2022-08-09T00:16:38.540Z,30.23
2022-08-09T00:17:00.211Z,30.23
2022-08-09T00:18:04.594Z,30.29
2022-08-09T00:18:09.364Z,30.26
2022-08-09T00:18:30.421Z,30.23
2022-08-09T00:19:00.506Z,30.27
2022-08-09T00:19:30.590Z,30.26
2022-08-09T00:20:00.590Z,30.20
2022-08-09T00:20:31.607Z,30.26
2022-08-09T00:21:00.670Z,30.26
2022-08-09T00:21:30.716Z,30.24
2022-08-09T00:22:00.749Z,30.24
2022-08-09T00:22:30.976Z,30.29
2022-08-09T00:23:09.918Z,30.21
2022-08-09T00:23:55.380Z,30.21
2022-08-09T00:24:00.973Z,30.26
2022-08-09T00:24:31.030Z,30.26
2022-08-09T00:25:01.040Z,30.21
2022-08-09T00:25:32.818Z,30.24
2022-08-09T00:26:01.199Z,30.18
2022-08-09T00:26:33.024Z,30.21
2022-08-09T00:27:01.309Z,30.24
2022-08-09T00:27:31.342Z,30.24
2022-08-09T00:28:04.100Z,30.18
2022-08-09T00:28:31.380Z,30.23
2022-08-09T00:29:01.428Z,30.20
2022-08-09T00:30:10.182Z,30.20
2022-08-09T00:30:16.520Z,30.21
2022-08-09T00:30:31.549Z,30.18
2022-08-09T00:31:01.584Z,30.19
2022-08-09T00:31:59.682Z,30.23
2022-08-09T00:32:01.678Z,30.18
2022-08-09T00:32:31.671Z,30.20
2022-08-09T00:33:01.764Z,30.23
2022-08-09T00:33:32.686Z,30.21
2022-08-09T00:34:01.884Z,30.20
2022-08-09T00:34:32.686Z,30.18
2022-08-09T00:35:02.037Z,30.18
2022-08-09T00:35:43.022Z,30.20
2022-08-09T00:36:02.196Z,30.16
2022-08-09T00:36:32.222Z,30.20
2022-08-09T00:37:02.333Z,30.15
2022-08-09T00:37:32.692Z,30.24
2022-08-09T00:38:02.937Z,30.23
2022-08-09T00:38:32.537Z,30.18
2022-08-09T00:39:02.597Z,30.20
2022-08-09T00:40:13.898Z,30.13
2022-08-09T00:40:13.898Z,30.23
2022-08-09T00:40:32.873Z,30.18
2022-08-09T00:41:02.919Z,30.24
2022-08-09T00:44:10.786Z,30.15
2022-08-09T00:44:13.226Z,30.17
2022-08-09T00:44:14.161Z,30.19
2022-08-09T00:44:14.816Z,30.20
2022-08-09T00:44:16.064Z,30.20
2022-08-09T00:44:17.020Z,30.27
2022-08-09T00:44:33.611Z,30.21
2022-08-09T00:45:03.724Z,30.26
2022-08-09T00:45:34.860Z,30.26
2022-08-09T00:46:03.386Z,30.23
2022-08-09T00:46:56.313Z,30.26
2022-08-09T00:47:05.551Z,30.24
2022-08-09T00:47:35.981Z,30.16
2022-08-09T00:48:03.549Z,30.21
2022-08-09T00:48:33.573Z,30.26
2022-08-09T00:49:03.981Z,30.18
2022-08-09T00:49:33.698Z,30.20
2022-08-09T00:50:03.726Z,30.21
2022-08-09T00:50:33.760Z,30.19
2022-08-09T00:51:10.397Z,30.18
2022-08-09T00:51:54.421Z,30.21
2022-08-09T00:52:05.549Z,30.23
2022-08-09T00:52:34.416Z,30.23
2022-08-09T00:53:10.093Z,30.16
2022-08-09T00:53:34.080Z,30.16
2022-08-09T00:54:04.133Z,30.18
2022-08-09T00:54:36.295Z,30.19
2022-08-09T00:55:04.258Z,30.18
2022-08-09T00:56:04.749Z,30.16
2022-08-09T00:56:10.055Z,30.19
2022-08-09T00:56:34.395Z,30.13
2022-08-09T00:57:10.200Z,30.21
2022-08-09T00:57:35.803Z,30.19
2022-08-09T00:58:04.950Z,30.25
2022-08-09T00:58:34.589Z,30.23
2022-08-09T00:59:04.649Z,30.19
2022-08-09T00:59:41.355Z,30.21
2022-08-09T01:00:05.332Z,30.24
2022-08-09T01:00:35.081Z,30.13
2022-08-09T01:01:04.900Z,30.25
2022-08-09T01:01:44.737Z,30.20
2022-08-09T01:02:04.776Z,30.18
2022-08-09T01:02:34.926Z,30.18
2022-08-09T01:03:05.017Z,30.19
2022-08-09T01:03:36.402Z,30.13
2022-08-09T01:04:05.048Z,30.18
2022-08-09T01:04:35.040Z,30.18
2022-08-09T01:05:05.066Z,30.18
2022-08-09T01:05:51.484Z,30.23
2022-08-09T01:06:17.495Z,30.23
2022-08-09T01:06:54.679Z,30.27
2022-08-09T01:07:05.263Z,30.19
2022-08-09T01:07:37.869Z,30.19
2022-08-09T01:08:05.331Z,30.18
2022-08-09T01:08:35.347Z,30.16
2022-08-09T01:09:06.196Z,30.19
2022-08-09T01:09:36.568Z,30.16
2022-08-09T01:10:05.618Z,30.27
2022-08-09T01:10:35.708Z,30.22
2022-08-09T01:11:08.543Z,30.19
2022-08-09T01:11:35.893Z,30.18
2022-08-09T01:12:05.925Z,30.18
2022-08-09T01:12:35.941Z,30.21
2022-08-09T01:13:07.414Z,30.16
2022-08-09T01:13:41.955Z,30.19
2022-08-09T01:14:06.062Z,30.18
2022-08-09T01:14:36.093Z,30.11
2022-08-09T01:15:09.993Z,30.15
2022-08-09T01:15:40.809Z,30.19
2022-08-09T01:16:06.225Z,30.22
2022-08-09T01:16:36.260Z,30.18
2022-08-09T01:17:08.849Z,30.16
2022-08-09T01:17:36.412Z,30.15
2022-08-09T01:18:06.443Z,30.21
2022-08-09T01:18:36.477Z,30.18
2022-08-09T01:19:06.527Z,30.18
2022-08-09T01:19:43.035Z,30.14
2022-08-09T01:20:06.624Z,30.19
2022-08-09T01:20:36.718Z,30.18
2022-08-09T01:21:06.760Z,30.24
2022-08-09T01:21:44.751Z,30.19
2022-08-09T01:22:06.834Z,30.19
2022-08-09T01:22:36.882Z,30.21
2022-08-09T01:24:00.876Z,30.24
2022-08-09T01:24:02.270Z,30.22
2022-08-09T01:24:07.004Z,30.19
2022-08-09T01:24:37.072Z,30.22
2022-08-09T01:25:07.129Z,30.16
2022-08-09T01:25:37.389Z,30.18
2022-08-09T01:26:07.209Z,30.18
2022-08-09T01:26:37.237Z,30.18
2022-08-09T01:27:08.010Z,30.19
2022-08-09T01:27:37.358Z,30.24
2022-08-09T01:28:07.393Z,30.22
2022-08-09T01:28:37.432Z,30.21
2022-08-09T01:29:07.520Z,30.19
2022-08-09T01:29:40.899Z,30.21
2022-08-09T01:30:08.300Z,30.13
2022-08-09T01:30:51.861Z,30.19
2022-08-09T01:31:07.709Z,30.18
2022-08-09T01:32:29.157Z,30.19
2022-08-09T01:32:29.949Z,30.16
2022-08-09T01:32:37.844Z,30.17
2022-08-09T01:33:10.005Z,30.19
2022-08-09T01:33:37.903Z,30.24
2022-08-09T01:34:08.949Z,30.19
2022-08-09T01:34:38.035Z,30.19
2022-08-09T01:35:29.066Z,30.16
2022-08-09T01:35:39.182Z,30.21
2022-08-09T01:36:08.170Z,30.18
2022-08-09T01:36:38.285Z,30.08
2022-08-09T01:37:08.327Z,30.19
2022-08-09T01:38:05.896Z,30.22
2022-08-09T01:38:10.725Z,30.22
2022-08-09T01:38:38.585Z,30.20
2022-08-09T01:39:08.579Z,30.19
2022-08-09T01:39:38.705Z,30.17
2022-08-09T01:40:08.632Z,30.19
2022-08-09T01:40:38.669Z,30.22
2022-08-09T01:41:08.707Z,30.19
2022-08-09T01:41:38.744Z,30.16
2022-08-09T01:42:11.170Z,30.17
2022-08-09T01:42:38.893Z,30.22
2022-08-09T01:43:08.973Z,30.16
2022-08-09T01:43:50.698Z,30.16
2022-08-09T01:44:09.036Z,30.19
2022-08-09T01:44:39.069Z,30.20
2022-08-09T01:45:09.100Z,30.20
2022-08-09T01:45:46.244Z,30.17
2022-08-09T01:46:09.192Z,30.17
2022-08-09T01:46:39.282Z,30.14
2022-08-09T01:47:11.752Z,30.18
2022-08-09T01:47:44.621Z,30.20
2022-08-09T01:48:09.433Z,30.13
2022-08-09T01:48:39.424Z,30.18
2022-08-09T01:49:12.694Z,30.21
2022-08-09T01:49:39.884Z,30.16
2022-08-09T01:50:09.609Z,30.17
2022-08-09T01:50:41.963Z,30.17
2022-08-09T01:51:09.980Z,30.20
2022-08-09T01:51:43.037Z,30.18
2022-08-09T01:52:09.781Z,30.17
2022-08-09T01:52:41.263Z,30.13
2022-08-09T01:53:19.995Z,30.17
2022-08-09T01:53:41.818Z,30.15
2022-08-09T01:54:10.019Z,30.22
2022-08-09T01:54:40.025Z,30.16
2022-08-09T01:55:10.028Z,30.16
2022-08-09T01:55:40.067Z,30.22
2022-08-09T01:56:10.127Z,30.19
2022-08-09T01:56:40.123Z,30.17
2022-08-09T01:57:10.125Z,30.18
2022-08-09T01:57:44.258Z,30.14
2022-08-09T01:58:10.258Z,30.11
2022-08-09T01:58:40.333Z,30.17
2022-08-09T01:59:10.331Z,30.19
2022-08-09T01:59:51.075Z,30.14
2022-08-09T02:00:34.952Z,30.16
2022-08-09T02:00:40.484Z,30.20
2022-08-09T02:01:10.664Z,30.16
2022-08-09T02:01:59.576Z,30.14
2022-08-09T02:02:10.684Z,30.17
2022-08-09T02:02:40.688Z,30.17
2022-08-09T02:03:13.843Z,30.16
2022-08-09T02:03:40.888Z,30.17
2022-08-09T02:04:10.993Z,30.19
2022-08-09T02:04:45.696Z,30.17
2022-08-09T02:05:15.075Z,30.20
2022-08-09T02:06:04.005Z,30.12
2022-08-09T02:06:11.728Z,30.16
2022-08-09T02:06:45.535Z,30.17
2022-08-09T02:07:18.497Z,30.14
2022-08-09T02:08:39.748Z,30.20
2022-08-09T02:08:40.185Z,30.17
2022-08-09T02:08:57.964Z,30.23
2022-08-09T02:09:11.678Z,30.20
2022-08-09T02:09:42.900Z,30.17
2022-08-09T02:10:11.788Z,30.19
2022-08-09T02:10:42.867Z,30.22
2022-08-09T02:11:17.320Z,30.22
2022-08-09T02:11:43.855Z,30.22
2022-08-09T02:12:13.409Z,30.18
2022-08-09T02:12:42.054Z,30.18
2022-08-09T02:13:12.084Z,30.25
2022-08-09T02:13:42.137Z,30.22
2022-08-09T02:14:14.983Z,30.19
2022-08-09T02:14:42.192Z,30.20
2022-08-09T02:15:16.664Z,30.12
2022-08-09T02:15:49.563Z,30.18
2022-08-09T02:16:12.428Z,30.22
2022-08-09T02:16:59.548Z,30.22
2022-08-09T02:17:15.087Z,30.17
2022-08-09T02:18:01.023Z,30.12
2022-08-09T02:18:12.478Z,30.23
2022-08-09T02:18:42.740Z,30.23
2022-08-09T02:19:12.605Z,30.20
2022-08-09T02:19:43.305Z,30.20
2022-08-09T02:20:12.736Z,30.22
2022-08-09T02:20:43.208Z,30.25
2022-08-09T02:21:17.096Z,30.17
2022-08-09T02:21:42.839Z,30.18
2022-08-09T02:22:12.903Z,30.25
2022-08-09T02:22:46.368Z,30.22
2022-08-09T02:23:13.039Z,30.18
2022-08-09T02:23:43.445Z,30.20
2022-08-09T02:24:13.092Z,30.18
2022-08-09T02:24:43.141Z,30.20
2022-08-09T02:25:15.251Z,30.20
2022-08-09T02:25:49.673Z,30.23
2022-08-09T02:26:25.106Z,30.20
2022-08-09T02:26:43.392Z,30.22
2022-08-09T02:27:13.422Z,30.20
2022-08-09T02:27:58.158Z,30.21
2022-08-09T02:28:17.708Z,30.18
2022-08-09T02:28:43.579Z,30.21
2022-08-09T02:29:13.573Z,30.18
2022-08-09T02:29:43.610Z,30.15
2022-08-09T02:30:13.642Z,30.15
2022-08-09T02:30:43.746Z,30.17
2022-08-09T02:31:13.862Z,30.22
2022-08-09T02:31:43.878Z,30.22
2022-08-09T02:32:13.994Z,30.15
2022-08-09T02:32:44.031Z,30.15
2022-08-09T02:33:14.265Z,30.21
2022-08-09T02:34:07.330Z,30.21
2022-08-09T02:34:25.694Z,30.22
2022-08-09T02:34:55.690Z,30.21
2022-08-09T02:35:17.873Z,30.21
2022-08-09T02:36:01.356Z,30.18
2022-08-09T02:36:14.306Z,30.17
2022-08-09T02:36:44.390Z,30.18
2022-08-09T02:37:14.420Z,30.29
2022-08-09T02:37:45.277Z,30.15
2022-08-09T02:38:27.839Z,30.23
2022-08-09T02:38:47.897Z,30.17
2022-08-09T02:39:33.210Z,30.20
2022-08-09T02:39:45.412Z,30.18
2022-08-09T02:40:14.743Z,30.21
2022-08-09T02:40:44.835Z,30.18
2022-08-09T02:41:14.862Z,30.26
2022-08-09T02:41:44.908Z,30.18
2022-08-09T02:42:14.920Z,30.18
2022-08-09T02:42:45.027Z,30.13
2022-08-09T02:43:15.073Z,30.15
2022-08-09T02:43:55.090Z,30.18
2022-08-09T02:44:29.532Z,30.17
2022-08-09T02:44:45.253Z,30.15
2022-08-09T02:45:15.364Z,30.17
2022-08-09T02:45:45.462Z,30.17
2022-08-09T02:46:15.497Z,30.18
2022-08-09T02:46:45.574Z,30.21
2022-08-09T02:47:15.624Z,30.20
2022-08-09T02:47:57.391Z,30.21
2022-08-09T02:48:19.596Z,30.15
2022-08-09T02:48:46.110Z,30.20
2022-08-09T02:49:15.805Z,30.17
2022-08-09T02:49:45.847Z,30.20
2022-08-09T02:50:15.895Z,30.21
2022-08-09T02:50:45.910Z,30.20
2022-08-09T02:51:15.911Z,30.21
2022-08-09T02:51:45.948Z,30.15
2022-08-09T02:52:15.983Z,30.21
2022-08-09T02:52:46.045Z,30.17
2022-08-09T02:53:17.310Z,30.15
2022-08-09T02:54:00.620Z,30.20
2022-08-09T02:54:16.157Z,30.18
2022-08-09T02:54:54.453Z,30.20
2022-08-09T02:55:20.778Z,30.18
2022-08-09T02:55:58.473Z,30.18
2022-08-09T02:56:16.216Z,30.20
2022-08-09T02:56:51.300Z,30.17
2022-08-09T02:57:23.254Z,30.21
2022-08-09T02:58:00.425Z,30.20
2022-08-09T02:58:35.517Z,30.20
2022-08-09T02:58:46.297Z,30.22
2022-08-09T02:59:26.163Z,30.20
2022-08-09T02:59:57.879Z,30.19
2022-08-09T03:00:25.313Z,30.19
2022-08-09T03:00:47.998Z,30.21
2022-08-09T03:01:21.806Z,30.16
2022-08-09T03:02:06.273Z,30.24
2022-08-09T03:02:16.922Z,30.22
2022-08-09T03:02:59.810Z,30.22
2022-08-09T03:03:21.578Z,30.24
2022-08-09T03:04:16.964Z,30.19
2022-08-09T03:04:19.758Z,30.26
2022-08-09T03:04:46.708Z,30.21
2022-08-09T03:05:16.937Z,30.16
2022-08-09T03:05:46.731Z,30.16
2022-08-09T03:06:16.795Z,30.19
2022-08-09T03:06:46.803Z,30.21
2022-08-09T03:07:16.889Z,30.22
2022-08-09T03:07:55.090Z,30.16
2022-08-09T03:08:16.986Z,30.16
2022-08-09T03:08:47.512Z,30.18
2022-08-09T03:09:17.216Z,30.18
2022-08-09T03:09:54.399Z,30.17
2022-08-09T03:10:17.247Z,30.17
2022-08-09T03:10:50.777Z,30.13
2022-08-09T03:12:05.541Z,30.22
2022-08-09T03:12:06.671Z,30.15
2022-08-09T03:12:17.448Z,30.18
2022-08-09T03:12:51.919Z,30.16
2022-08-09T03:13:17.534Z,30.20
2022-08-09T03:13:59.262Z,30.15
2022-08-09T03:14:17.621Z,30.15
2022-08-09T03:14:47.657Z,30.21
2022-08-09T03:15:17.760Z,30.18
2022-08-09T03:16:06.309Z,30.24
2022-08-09T03:16:17.903Z,30.19
2022-08-09T03:16:48.474Z,30.19
2022-08-09T03:17:26.422Z,30.16
2022-08-09T03:17:48.129Z,30.22
2022-08-09T03:18:30.390Z,30.18
2022-08-09T03:18:48.230Z,30.22
2022-08-09T03:19:58.439Z,30.22
2022-08-09T03:19:58.712Z,30.19
2022-08-09T03:20:18.430Z,30.22
2022-08-09T03:20:48.482Z,30.16
2022-08-09T03:21:18.493Z,30.18
2022-08-09T03:21:50.907Z,30.23
2022-08-09T03:22:25.053Z,30.16
2022-08-09T03:22:56.848Z,30.22
2022-08-09T03:23:24.703Z,30.22
2022-08-09T03:24:04.099Z,30.25
2022-08-09T03:24:42.057Z,30.22
2022-08-09T03:24:52.053Z,30.21
2022-08-09T03:25:56.670Z,30.19
2022-08-09T03:25:58.956Z,30.22
2022-08-09T03:26:19.085Z,30.19
2022-08-09T03:26:49.144Z,30.17
2022-08-09T03:27:21.563Z,30.17
2022-08-09T03:27:49.307Z,30.19
2022-08-09T03:28:19.344Z,30.24
2022-08-09T03:28:49.371Z,30.24
2022-08-09T03:29:22.750Z,30.16
2022-08-09T03:29:57.882Z,30.18
2022-08-09T03:30:29.903Z,30.22
2022-08-09T03:30:49.636Z,30.22
2022-08-09T03:31:21.358Z,30.19
2022-08-09T03:32:00.334Z,30.14
2022-08-09T03:32:23.983Z,30.18
2022-08-09T03:32:49.791Z,30.22
2022-08-09T03:33:19.815Z,30.19
2022-08-09T03:33:54.327Z,30.24
2022-08-09T03:34:19.902Z,30.25
2022-08-09T03:34:54.044Z,30.20
2022-08-09T03:35:24.610Z,30.23
2022-08-09T03:36:13.061Z,30.25
2022-08-09T03:36:20.069Z,30.24
2022-08-09T03:36:59.562Z,30.24
2022-08-09T03:37:55.799Z,30.23
2022-08-09T03:37:56.493Z,30.25
2022-08-09T03:38:30.223Z,30.20
2022-08-09T03:38:50.346Z,30.20
2022-08-09T03:39:20.401Z,30.17
2022-08-09T03:39:56.513Z,30.21
2022-08-09T03:40:20.483Z,30.23
2022-08-09T03:40:50.520Z,30.20
2022-08-09T03:41:20.579Z,30.19
2022-08-09T03:41:50.666Z,30.22
2022-08-09T03:42:20.690Z,30.23
2022-08-09T03:42:50.729Z,30.23
2022-08-09T03:43:20.758Z,30.16
2022-08-09T03:44:03.758Z,30.19
2022-08-09T03:44:20.895Z,30.23
2022-08-09T03:44:50.949Z,30.23
2022-08-09T03:46:04.473Z,30.20
2022-08-09T03:46:04.684Z,30.23
2022-08-09T03:46:29.340Z,30.19
2022-08-09T03:46:51.134Z,30.25
2022-08-09T03:47:21.167Z,30.20
2022-08-09T03:47:51.214Z,30.28
2022-08-09T03:48:30.943Z,30.26
2022-08-09T03:48:52.195Z,30.23
2022-08-09T03:49:21.406Z,30.23
2022-08-09T03:49:58.436Z,30.20
2022-08-09T03:50:27.936Z,30.25
2022-08-09T03:50:51.522Z,30.28
2022-08-09T03:51:54.123Z,30.23
2022-08-09T03:51:58.538Z,30.20
2022-08-09T03:52:21.735Z,30.23
2022-08-09T03:52:51.789Z,30.23
2022-08-09T03:53:21.885Z,30.22
2022-08-09T03:53:51.933Z,30.25
2022-08-09T03:54:29.435Z,30.17
2022-08-09T03:54:51.982Z,30.23
2022-08-09T03:55:21.980Z,30.25
2022-08-09T03:55:51.978Z,30.25
2022-08-09T03:56:22.098Z,30.20
2022-08-09T03:56:52.179Z,30.25
2022-08-09T03:57:22.190Z,30.19
2022-08-09T03:58:03.527Z,30.19
2022-08-09T03:58:22.328Z,30.19
2022-08-09T03:58:52.327Z,30.17
2022-08-09T03:59:42.594Z,30.15
2022-08-09T03:59:54.448Z,30.22
2022-08-09T04:00:22.404Z,30.17
2022-08-09T04:00:52.509Z,30.20
2022-08-09T04:01:22.499Z,30.20
2022-08-09T04:01:52.568Z,30.20
2022-08-09T04:02:26.246Z,30.19
2022-08-09T04:02:53.563Z,30.14
2022-08-09T04:03:35.295Z,30.23
2022-08-09T04:04:00.525Z,30.21
2022-08-09T04:04:24.576Z,30.15
2022-08-09T04:04:52.727Z,30.19
2022-08-09T04:05:27.533Z,30.17
2022-08-09T04:05:52.818Z,30.14
2022-08-09T04:06:22.850Z,30.22
2022-08-09T04:06:52.893Z,30.20
2022-08-09T04:07:22.933Z,30.22
2022-08-09T04:07:57.691Z,30.26
2022-08-09T04:08:28.888Z,30.48
2022-08-09T04:08:53.554Z,30.48
2022-08-09T04:09:44.445Z,30.77
2022-08-09T04:09:53.870Z,31.53
2022-08-09T04:10:29.699Z,32.91
2022-08-09T04:10:53.352Z,32.97
2022-08-09T04:11:23.417Z,33.53
2022-08-09T04:11:53.529Z,33.38
2022-08-09T04:12:30.975Z,33.76
2022-08-09T04:12:53.625Z,33.56
2022-08-09T04:13:44.871Z,33.71
2022-08-09T04:14:53.710Z,33.28
2022-08-09T04:14:53.891Z,33.53
2022-08-09T04:15:01.554Z,33.06
2022-08-09T04:15:39.272Z,33.23
2022-08-09T04:16:20.059Z,33.33
2022-08-09T04:16:23.951Z,32.95
2022-08-09T04:16:54.015Z,33.62
2022-08-09T04:17:24.024Z,34.04
2022-08-09T04:17:54.058Z,34.20
2022-08-09T04:18:25.147Z,34.38
2022-08-09T04:18:54.236Z,34.43
2022-08-09T04:19:30.015Z,34.29
2022-08-09T04:19:56.131Z,34.10
2022-08-09T04:20:24.388Z,34.40
2022-08-09T04:20:54.456Z,34.44
2022-08-09T04:21:24.488Z,35.75
2022-08-09T04:21:54.509Z,35.59
2022-08-09T04:22:24.598Z,35.38
2022-08-09T04:22:54.613Z,35.59
2022-08-09T04:23:25.846Z,35.75
2022-08-09T04:23:57.801Z,35.38
2022-08-09T04:24:24.805Z,35.59
2022-08-09T04:24:54.839Z,35.36
2022-08-09T04:25:24.871Z,35.64
2022-08-09T04:25:54.896Z,36.09
2022-08-09T04:26:24.941Z,35.90
2022-08-09T04:26:54.993Z,35.60
2022-08-09T04:27:25.080Z,35.62
2022-08-09T04:27:55.128Z,35.13
2022-08-09T04:28:33.672Z,34.70
2022-08-09T04:28:59.736Z,34.56
2022-08-09T04:29:25.272Z,34.55
2022-08-09T04:29:55.384Z,34.85
2022-08-09T04:30:26.166Z,34.91
2022-08-09T04:30:55.436Z,35.29
2022-08-09T04:31:26.295Z,35.33
2022-08-09T04:31:57.813Z,35.55
2022-08-09T04:32:31.398Z,35.54
2022-08-09T04:32:55.780Z,35.24
2022-08-09T04:33:28.748Z,35.90
2022-08-09T04:33:59.264Z,35.91
2022-08-09T04:34:30.700Z,35.85
2022-08-09T04:34:57.522Z,35.56
2022-08-09T04:35:26.195Z,35.63
2022-08-09T04:35:56.245Z,35.65
2022-08-09T04:36:26.308Z,35.41
2022-08-09T04:36:56.314Z,35.40
2022-08-09T04:37:42.146Z,35.17
2022-08-09T04:37:56.425Z,34.91
2022-08-09T04:38:26.452Z,34.86
2022-08-09T04:38:56.484Z,34.60
2022-08-09T04:39:26.595Z,34.62
2022-08-09T04:39:56.540Z,34.61
2022-08-09T04:40:35.851Z,34.64
2022-08-09T04:40:57.157Z,34.36
2022-08-09T04:41:32.164Z,34.81
2022-08-09T04:41:56.700Z,34.93
2022-08-09T04:42:26.740Z,34.88
2022-08-09T04:42:57.071Z,34.70
2022-08-09T04:43:26.831Z,34.27
2022-08-09T04:44:06.444Z,34.19
2022-08-09T04:44:26.985Z,34.63
2022-08-09T04:44:57.076Z,34.68
2022-08-09T04:45:30.433Z,34.63
2022-08-09T04:45:57.190Z,35.11
2022-08-09T04:46:36.613Z,34.72
2022-08-09T04:47:04.642Z,34.91
2022-08-09T04:47:27.474Z,34.70
2022-08-09T04:48:00.251Z,34.85
2022-08-09T04:48:33.408Z,35.08
2022-08-09T04:48:58.495Z,34.69
2022-08-09T04:49:40.651Z,34.32
2022-08-09T04:49:57.728Z,34.75
2022-08-09T04:50:33.584Z,34.85
2022-08-09T04:50:57.819Z,34.65
2022-08-09T04:51:27.847Z,34.38
2022-08-09T04:51:57.891Z,34.47
2022-08-09T04:52:27.947Z,34.50
2022-08-09T04:52:57.950Z,34.76
2022-08-09T04:53:27.973Z,34.43
2022-08-09T04:53:58.547Z,34.18
2022-08-09T04:54:28.080Z,34.32
2022-08-09T04:54:58.747Z,34.73
2022-08-09T04:55:28.146Z,34.55
2022-08-09T04:55:59.797Z,34.41
2022-08-09T04:56:28.223Z,34.12
2022-08-09T04:56:58.231Z,33.79
2022-08-09T04:57:54.402Z,34.26
2022-08-09T04:58:01.545Z,33.86
2022-08-09T04:58:29.009Z,33.92
2022-08-09T04:58:58.359Z,33.67
2022-08-09T04:59:30.206Z,34.23
2022-08-09T04:59:58.510Z,34.09
2022-08-09T05:00:31.662Z,33.96
2022-08-09T05:00:58.610Z,33.91
2022-08-09T05:01:28.610Z,33.74
2022-08-09T05:01:58.655Z,34.27
2022-08-09T05:02:28.736Z,34.07
2022-08-09T05:02:58.731Z,33.87
2022-08-09T05:03:40.362Z,33.71
2022-08-09T05:03:58.884Z,33.60
2022-08-09T05:04:31.142Z,33.66
2022-08-09T05:04:58.890Z,33.35
2022-08-09T05:05:31.718Z,33.34
2022-08-09T05:06:06.594Z,33.27
2022-08-09T05:06:32.624Z,33.39
2022-08-09T05:06:59.102Z,33.33
2022-08-09T05:07:31.793Z,33.15
2022-08-09T05:07:59.177Z,33.07
2022-08-09T05:08:29.290Z,33.17
2022-08-09T05:09:00.321Z,33.14
2022-08-09T05:09:32.614Z,33.08
2022-08-09T05:10:01.613Z,33.06
2022-08-09T05:10:29.563Z,33.02
2022-08-09T05:11:01.047Z,33.04
2022-08-09T05:11:32.010Z,32.98
2022-08-09T05:11:59.654Z,32.85
2022-08-09T05:12:29.686Z,32.77
2022-08-09T05:12:59.780Z,32.78
2022-08-09T05:13:33.059Z,32.74
2022-08-09T05:13:59.892Z,32.79
2022-08-09T05:14:29.917Z,32.86
2022-08-09T05:14:59.945Z,32.82
2022-08-09T05:15:39.150Z,32.75
2022-08-09T05:16:00.019Z,32.75
2022-08-09T05:16:31.972Z,32.78
2022-08-09T05:17:00.150Z,32.82
2022-08-09T05:18:50.389Z,32.75
2022-08-09T05:18:55.115Z,32.79
2022-08-09T05:18:57.678Z,32.88
2022-08-09T05:19:00.820Z,32.57
2022-08-09T05:19:44.461Z,32.53
2022-08-09T05:20:00.425Z,32.54
2022-08-09T05:20:30.687Z,32.51
2022-08-09T05:21:00.585Z,32.60
2022-08-09T05:21:46.716Z,32.72
2022-08-09T05:22:00.689Z,32.66
2022-08-09T05:22:35.831Z,32.62
2022-08-09T05:23:55.628Z,32.47
2022-08-09T05:23:57.606Z,32.42
2022-08-09T05:24:02.473Z,32.41
2022-08-09T05:24:30.983Z,32.38
2022-08-09T05:25:02.723Z,32.30
2022-08-09T05:25:32.439Z,32.34
2022-08-09T05:26:01.111Z,32.40
2022-08-09T05:26:35.895Z,32.32
2022-08-09T05:27:01.195Z,32.37
2022-08-09T05:27:31.226Z,32.28
2022-08-09T05:28:01.260Z,32.36
2022-08-09T05:28:31.293Z,32.56
2022-08-09T05:29:01.386Z,32.48
2022-08-09T05:29:31.746Z,32.43
2022-08-09T05:30:01.527Z,32.50
2022-08-09T05:30:31.583Z,32.64
2022-08-09T05:31:01.620Z,32.54
2022-08-09T05:31:45.019Z,32.76
2022-08-09T05:32:01.703Z,32.64
2022-08-09T05:32:31.987Z,32.60
2022-08-09T05:33:01.923Z,32.56
2022-08-09T05:33:32.734Z,32.55
2022-08-09T05:34:01.818Z,32.47
2022-08-09T05:34:32.697Z,32.52
2022-08-09T05:35:01.853Z,32.39
2022-08-09T05:35:32.017Z,32.51
2022-08-09T05:36:01.937Z,32.46
2022-08-09T05:36:31.968Z,32.47
2022-08-09T05:37:04.947Z,32.42
2022-08-09T05:37:32.115Z,32.39
2022-08-09T05:38:02.167Z,32.32
2022-08-09T05:38:32.168Z,32.35
2022-08-09T05:39:02.296Z,32.39
2022-08-09T05:39:36.244Z,32.33
2022-08-09T05:40:02.288Z,32.34
2022-08-09T05:40:32.371Z,32.33
2022-08-09T05:41:02.400Z,32.32
2022-08-09T05:41:32.513Z,32.36
2022-08-09T05:42:04.893Z,32.39
2022-08-09T05:42:33.001Z,32.32
2022-08-09T05:43:02.668Z,32.34
2022-08-09T05:43:32.686Z,32.30
2022-08-09T05:44:02.724Z,32.40
2022-08-09T05:44:34.808Z,32.30
2022-08-09T05:45:02.819Z,32.24
2022-08-09T05:45:53.035Z,32.24
2022-08-09T05:46:02.910Z,32.30
2022-08-09T05:46:32.934Z,32.32
2022-08-09T05:47:05.065Z,32.33
2022-08-09T05:47:33.308Z,32.31
2022-08-09T05:48:03.089Z,32.36
2022-08-09T05:48:33.570Z,32.33
2022-08-09T05:49:03.211Z,32.36
2022-08-09T05:50:24.087Z,32.39
2022-08-09T05:50:30.834Z,32.47
2022-08-09T05:50:44.315Z,32.40
2022-08-09T05:51:30.236Z,32.40
2022-08-09T05:51:43.176Z,32.39
2022-08-09T05:52:03.553Z,32.47
2022-08-09T05:52:33.726Z,32.53
2022-08-09T05:53:03.577Z,32.51
2022-08-09T05:53:35.367Z,32.52
2022-08-09T05:54:03.667Z,32.61
2022-08-09T05:54:33.768Z,32.62
2022-08-09T05:55:07.474Z,32.58
2022-08-09T05:55:33.788Z,32.56
2022-08-09T05:56:03.782Z,32.45
2022-08-09T05:56:33.782Z,32.46
2022-08-09T05:57:03.905Z,32.46
2022-08-09T05:57:55.511Z,32.66
2022-08-09T05:58:07.158Z,32.49
2022-08-09T05:58:33.999Z,32.48
2022-08-09T05:59:03.997Z,32.42
2022-08-09T05:59:34.016Z,32.48
2022-08-09T06:00:04.017Z,32.42
2022-08-09T06:00:34.097Z,32.47
2022-08-09T06:01:04.100Z,32.50
2022-08-09T06:01:42.646Z,32.48
2022-08-09T06:02:04.150Z,32.46
2022-08-09T06:02:34.509Z,32.38
2022-08-09T06:03:04.349Z,32.35
2022-08-09T06:03:43.815Z,32.44
2022-08-09T06:04:05.809Z,32.45
2022-08-09T06:04:34.759Z,32.42
2022-08-09T06:05:04.670Z,32.45
2022-08-09T06:05:57.319Z,32.43
2022-08-09T06:06:06.171Z,32.45
2022-08-09T06:06:34.571Z,33.02
2022-08-09T06:07:04.636Z,32.89
2022-08-09T06:07:34.712Z,32.78
2022-08-09T06:08:05.613Z,32.82
2022-08-09T06:08:34.805Z,32.78
2022-08-09T06:09:05.582Z,32.79
2022-08-09T06:09:41.096Z,32.94
2022-08-09T06:10:04.895Z,32.92
2022-08-09T06:10:34.936Z,32.91
2022-08-09T06:11:17.491Z,32.91
2022-08-09T06:11:40.774Z,32.90
2022-08-09T06:12:05.239Z,32.90
2022-08-09T06:12:35.424Z,32.93
2022-08-09T06:13:12.199Z,32.96
2022-08-09T06:13:35.281Z,32.91
2022-08-09T06:14:05.344Z,32.87
2022-08-09T06:14:35.369Z,32.91
2022-08-09T06:15:09.827Z,32.87
2022-08-09T06:15:35.415Z,32.99
2022-08-09T06:16:05.574Z,33.02
2022-08-09T06:16:35.511Z,33.21
2022-08-09T06:17:09.267Z,33.15
2022-08-09T06:17:40.519Z,33.09
2022-08-09T06:18:05.623Z,33.00
2022-08-09T06:18:35.657Z,32.97
2022-08-09T06:19:05.713Z,32.93
2022-08-09T06:19:35.815Z,32.90
2022-08-09T06:20:05.811Z,32.99
2022-08-09T06:20:35.951Z,32.93
2022-08-09T06:21:06.028Z,32.94
2022-08-09T06:21:36.064Z,32.86
2022-08-09T06:22:06.130Z,32.86
2022-08-09T06:22:36.460Z,32.83
2022-08-09T06:23:06.204Z,32.82
2022-08-09T06:23:57.272Z,32.82
2022-08-09T06:24:06.310Z,32.86
2022-08-09T06:24:36.392Z,32.79
2022-08-09T06:25:08.626Z,32.75
2022-08-09T06:25:36.487Z,32.73
2022-08-09T06:26:06.536Z,32.79
2022-08-09T06:26:36.571Z,32.89